Time;durP1;ratioP1;P1;durP2;ratioP2;P2;SDS_P1;SDS_P2;PMS_P1;PMS_P2;Temp;Humidity;BMP_temperature;BMP_pressure;BME280_temperature;BME280_humidity;BME280_pressure;Samples;Min_cycle;Max_cycle;Signal;HPM_P1;HPM_P2
2021/04/10 00:02:24;;;;;;;18.27;17.67;;;;;;;;;;5028872;28;20033;-56
2021/04/10 00:04:50;;;;;;;22.95;22.25;;;;;;;;;;5029941;28;20121;-55
2021/04/10 00:07:17;;;;;;;23.42;22.73;;;;;;;;;;5022569;28;20441;-55
2021/04/10 00:09:44;;;;;;;21.98;21.27;;;;;;;;;;5027751;28;20429;-56
2021/04/10 00:12:10;;;;;;;22.20;21.70;;;;;;;;;;5032668;28;20120;-55
2021/04/10 00:14:37;;;;;;;20.15;19.65;;;;;;;;;;5025353;28;20412;-56
2021/04/10 00:17:04;;;;;;;19.98;19.23;;;;;;;;;;5027809;28;20038;-55
2021/04/10 00:19:32;;;;;;;19.67;19.35;;;;;;;;;;5032293;28;20053;-55
2021/04/10 00:21:58;;;;;;;21.75;20.88;;;;;;;;;;5025831;28;20041;-56
2021/04/10 00:24:25;;;;;;;19.55;19.23;;;;;;;;;;5028480;28;20037;-55
2021/04/10 00:26:51;;;;;;;21.55;21.13;;;;;;;;;;5019545;28;20069;-56
2021/04/10 00:29:17;;;;;;;20.67;20.27;;;;;;;;;;5021082;28;20049;-55
2021/04/10 00:31:44;;;;;;;20.65;20.20;;;;;;;;;;5034447;28;20129;-55
2021/04/10 00:34:10;;;;;;;20.73;20.15;;;;;;;;;;5026068;28;20453;-55
2021/04/10 00:36:36;;;;;;;19.45;18.95;;;;;;;;;;5029643;28;20046;-54
2021/04/10 00:39:03;;;;;;;20.33;19.92;;;;;;;;;;5030533;28;20444;-55
2021/04/10 00:41:29;;;;;;;21.67;20.95;;;;;;;;;;5026320;28;20038;-55
2021/04/10 00:43:55;;;;;;;19.73;19.42;;;;;;;;;;5034620;28;20038;-55
2021/04/10 00:46:22;;;;;;;24.33;23.38;;;;;;;;;;5026647;28;20490;-56
2021/04/10 00:48:48;;;;;;;24.55;23.45;;;;;;;;;;5022494;28;20042;-56
2021/04/10 00:51:14;;;;;;;22.92;21.92;;;;;;;;;;5029119;28;20068;-55
2021/04/10 00:53:41;;;;;;;24.83;24.05;;;;;;;;;;5026706;28;20465;-55
2021/04/10 00:56:07;;;;;;;20.33;19.75;;;;;;;;;;5018855;28;20393;-55
2021/04/10 00:58:34;;;;;;;25.13;24.08;;;;;;;;;;5027167;28;20041;-56
2021/04/10 01:01:01;;;;;;;23.20;22.45;;;;;;;;;;5028630;28;21130;-56
2021/04/10 01:03:28;;;;;;;22.45;21.70;;;;;;;;;;5029766;28;20405;-56
2021/04/10 01:05:54;;;;;;;24.33;23.27;;;;;;;;;;5025714;28;20041;-55
2021/04/10 01:08:21;;;;;;;23.27;22.58;;;;;;;;;;5018851;28;20096;-56
2021/04/10 01:10:47;;;;;;;22.65;22.05;;;;;;;;;;5018398;28;20077;-56
2021/04/10 01:13:49;;;;;;;23.30;22.60;;;;;;;;;;5023936;28;20402;-55
2021/04/10 01:16:29;;;;;;;23.02;22.15;;;;;;;;;;5031084;28;20584;-55
2021/04/10 01:19:18;;;;;;;22.90;22.27;;;;;;;;;;5031330;28;20561;-55
2021/04/10 01:21:51;;;;;;;23.70;23.10;;;;;;;;;;5024502;28;20390;-55
2021/04/10 01:24:32;;;;;;;23.10;22.48;;;;;;;;;;5031825;28;20053;-55
2021/04/10 01:27:02;;;;;;;23.83;23.02;;;;;;;;;;5031796;28;20037;-56
2021/04/10 01:29:28;;;;;;;23.55;22.98;;;;;;;;;;5031864;28;20041;-55
2021/04/10 01:31:55;;;;;;;23.50;22.92;;;;;;;;;;5030670;28;20080;-55
2021/04/10 01:34:42;;;;;;;25.95;24.92;;;;;;;;;;5030936;28;20045;-56
2021/04/10 01:37:10;;;;;;;23.58;22.95;;;;;;;;;;5030377;28;20049;-56
2021/04/10 01:39:37;;;;;;;23.38;22.55;;;;;;;;;;5032295;28;20073;-56
2021/04/10 01:42:05;;;;;;;24.48;23.92;;;;;;;;;;5031330;28;20045;-55
2021/04/10 01:44:32;;;;;;;23.95;23.10;;;;;;;;;;5026098;28;20534;-54
2021/04/10 01:46:58;;;;;;;23.25;22.75;;;;;;;;;;5031299;28;20046;-55
2021/04/10 01:49:26;;;;;;;23.70;23.00;;;;;;;;;;5019057;28;20126;-53
2021/04/10 01:51:52;;;;;;;23.33;22.73;;;;;;;;;;5029328;28;20172;-55
2021/04/10 01:54:19;;;;;;;23.33;22.73;;;;;;;;;;5025489;28;20038;-56
2021/04/10 01:56:46;;;;;;;22.98;22.33;;;;;;;;;;5031583;28;20427;-54
2021/04/10 01:59:14;;;;;;;21.65;20.95;;;;;;;;;;5026517;28;20042;-56
2021/04/10 02:01:41;;;;;;;22.67;22.17;;;;;;;;;;5029500;28;20116;-56
2021/04/10 02:04:09;;;;;;;26.63;25.65;;;;;;;;;;5030865;28;20520;-56
2021/04/10 02:06:35;;;;;;;24.00;23.30;;;;;;;;;;5025640;28;20041;-56
2021/04/10 02:09:03;;;;;;;23.92;23.10;;;;;;;;;;5032171;28;20041;-56
2021/04/10 02:11:32;;;;;;;24.00;23.40;;;;;;;;;;5027202;28;20069;-55
2021/04/10 02:13:58;;;;;;;24.80;24.08;;;;;;;;;;5019844;28;20038;-55
2021/04/10 02:16:25;;;;;;;22.10;21.67;;;;;;;;;;5022210;28;20084;-55
2021/04/10 02:18:51;;;;;;;20.75;20.33;;;;;;;;;;5023716;28;20048;-55
2021/04/10 02:21:25;;;;;;;23.80;23.20;;;;;;;;;;5029485;28;20060;-55
2021/04/10 02:23:52;;;;;;;22.73;22.40;;;;;;;;;;5029293;28;20451;-56
2021/04/10 02:26:19;;;;;;;23.35;22.85;;;;;;;;;;5026917;28;20041;-55
2021/04/10 02:28:46;;;;;;;23.23;22.58;;;;;;;;;;5031788;28;20632;-55
2021/04/10 02:31:38;;;;;;;23.52;22.88;;;;;;;;;;5025548;28;20033;-55
2021/04/10 02:34:07;;;;;;;22.75;21.80;;;;;;;;;;5028291;28;20768;-56
2021/04/10 02:36:35;;;;;;;24.75;24.02;;;;;;;;;;5028380;28;20398;-55
2021/04/10 02:39:02;;;;;;;19.77;19.27;;;;;;;;;;5021131;28;20026;-55
2021/04/10 02:41:29;;;;;;;21.50;21.13;;;;;;;;;;5017176;28;20060;-55
2021/04/10 02:43:56;;;;;;;21.38;21.08;;;;;;;;;;5024907;28;20401;-56
2021/04/10 02:46:25;;;;;;;23.02;22.58;;;;;;;;;;5024908;28;20045;-56
2021/04/10 02:49:18;;;;;;;23.95;23.45;;;;;;;;;;5031282;28;20042;-56
2021/04/10 02:51:47;;;;;;;23.50;22.88;;;;;;;;;;5024137;28;20061;-56
2021/04/10 02:54:18;;;;;;;26.75;25.85;;;;;;;;;;5027332;28;21059;-55
2021/04/10 02:57:07;;;;;;;23.75;22.90;;;;;;;;;;5029314;28;20045;-55
2021/04/10 02:59:34;;;;;;;25.73;24.45;;;;;;;;;;5027464;28;20048;-55
2021/04/10 03:02:02;;;;;;;25.08;24.27;;;;;;;;;;5043058;28;20108;-55
2021/04/10 03:04:29;;;;;;;24.83;23.83;;;;;;;;;;5029827;28;20036;-56
2021/04/10 03:06:56;;;;;;;21.67;21.08;;;;;;;;;;5020555;28;20034;-55
2021/04/10 03:09:22;;;;;;;24.92;23.98;;;;;;;;;;5018812;28;20393;-55
2021/04/10 03:11:49;;;;;;;21.58;21.08;;;;;;;;;;5026468;28;20095;-54
2021/04/10 03:14:17;;;;;;;22.42;21.98;;;;;;;;;;5027803;28;20053;-55
2021/04/10 03:16:44;;;;;;;23.58;23.08;;;;;;;;;;5029620;28;20490;-56
2021/04/10 03:19:11;;;;;;;23.15;22.67;;;;;;;;;;5023801;28;20033;-55
2021/04/10 03:21:40;;;;;;;22.63;22.13;;;;;;;;;;5031339;28;20474;-56
2021/04/10 03:24:07;;;;;;;23.83;23.15;;;;;;;;;;5023623;28;20092;-56
2021/04/10 03:26:34;;;;;;;24.27;23.58;;;;;;;;;;5026289;28;20445;-55
2021/04/10 03:29:01;;;;;;;22.65;22.17;;;;;;;;;;5033049;28;20462;-56
2021/04/10 03:31:28;;;;;;;21.55;21.15;;;;;;;;;;5029126;28;20068;-55
2021/04/10 03:33:54;;;;;;;23.98;23.42;;;;;;;;;;5033572;28;20405;-56
2021/04/10 03:36:21;;;;;;;20.05;19.70;;;;;;;;;;5027950;28;20481;-56
2021/04/10 03:38:48;;;;;;;21.58;20.75;;;;;;;;;;5023408;28;20068;-56
2021/04/10 03:41:14;;;;;;;22.75;22.35;;;;;;;;;;5033009;28;20034;-56
2021/04/10 03:43:41;;;;;;;23.45;22.85;;;;;;;;;;5024813;28;20124;-56
2021/04/10 03:46:07;;;;;;;21.65;21.15;;;;;;;;;;5024287;28;20111;-54
2021/04/10 03:48:34;;;;;;;23.88;23.38;;;;;;;;;;5032719;28;20036;-56
2021/04/10 03:51:05;;;;;;;22.63;22.13;;;;;;;;;;5028008;28;20132;-55
2021/04/10 03:53:37;;;;;;;21.48;21.10;;;;;;;;;;5018693;28;20068;-56
2021/04/10 03:56:04;;;;;;;22.05;21.55;;;;;;;;;;5026849;28;20125;-56
2021/04/10 03:58:30;;;;;;;25.38;24.48;;;;;;;;;;5022476;28;20096;-55
2021/04/10 04:00:56;;;;;;;22.55;22.00;;;;;;;;;;5033221;28;20088;-56
2021/04/10 04:03:22;;;;;;;24.45;23.73;;;;;;;;;;5026759;28;20112;-56
2021/04/10 04:05:49;;;;;;;23.30;22.48;;;;;;;;;;5034507;28;20397;-56
2021/04/10 04:08:15;;;;;;;21.95;21.33;;;;;;;;;;5027762;28;20083;-56
2021/04/10 04:10:41;;;;;;;22.50;22.10;;;;;;;;;;5027222;28;20478;-55
2021/04/10 04:13:08;;;;;;;23.80;23.23;;;;;;;;;;5019067;28;20038;-56
2021/04/10 04:15:34;;;;;;;22.30;21.58;;;;;;;;;;5025093;28;20041;-56
2021/04/10 04:18:00;;;;;;;23.85;23.27;;;;;;;;;;5028182;28;20034;-56
2021/04/10 04:20:27;;;;;;;23.40;22.60;;;;;;;;;;5028371;28;20524;-54
2021/04/10 04:22:53;;;;;;;22.27;21.80;;;;;;;;;;5023741;28;20610;-53
2021/04/10 04:25:21;;;;;;;22.73;22.13;;;;;;;;;;5032801;28;20406;-55
2021/04/10 04:27:50;;;;;;;22.20;21.60;;;;;;;;;;5025184;28;20789;-56
2021/04/10 04:30:19;;;;;;;23.23;22.52;;;;;;;;;;5031162;28;20088;-53
2021/04/10 04:32:45;;;;;;;21.20;20.42;;;;;;;;;;5028191;28;20053;-56
2021/04/10 04:35:12;;;;;;;22.45;21.92;;;;;;;;;;5020122;28;20069;-55
2021/04/10 04:37:39;;;;;;;18.90;18.50;;;;;;;;;;5034422;28;20437;-56
2021/04/10 04:40:06;;;;;;;21.92;21.33;;;;;;;;;;5025078;28;20115;-56
2021/04/10 04:42:32;;;;;;;22.50;21.95;;;;;;;;;;5022338;28;20049;-54
2021/04/10 04:44:58;;;;;;;22.08;21.67;;;;;;;;;;5031368;28;20041;-56
2021/04/10 04:47:25;;;;;;;21.10;20.70;;;;;;;;;;5024986;28;20053;-53
2021/04/10 04:49:51;;;;;;;23.20;22.80;;;;;;;;;;5032286;28;20107;-55
2021/04/10 04:52:17;;;;;;;21.88;21.20;;;;;;;;;;5027055;28;20063;-54
2021/04/10 04:54:44;;;;;;;21.70;21.30;;;;;;;;;;5029541;28;20568;-54
2021/04/10 04:57:10;;;;;;;23.02;22.55;;;;;;;;;;5022942;28;20042;-55
2021/04/10 04:59:36;;;;;;;22.25;21.85;;;;;;;;;;5022031;28;20049;-55
2021/04/10 05:02:03;;;;;;;21.23;20.83;;;;;;;;;;5033386;28;20060;-56
2021/04/10 05:04:29;;;;;;;21.13;20.42;;;;;;;;;;5027241;28;20095;-55
2021/04/10 05:06:56;;;;;;;21.00;20.60;;;;;;;;;;5028365;28;20085;-56
2021/04/10 05:09:22;;;;;;;23.77;23.17;;;;;;;;;;5032649;28;20068;-56
2021/04/10 05:11:50;;;;;;;22.83;22.42;;;;;;;;;;5024456;28;20696;-56
2021/04/10 05:14:16;;;;;;;23.33;22.80;;;;;;;;;;5032243;28;20053;-55
2021/04/10 05:16:42;;;;;;;20.50;20.10;;;;;;;;;;5025783;28;20037;-53
2021/04/10 05:19:08;;;;;;;20.73;19.95;;;;;;;;;;5027417;28;20156;-56
2021/04/10 05:21:35;;;;;;;21.35;20.60;;;;;;;;;;5029445;28;20045;-56
2021/04/10 05:24:01;;;;;;;24.70;23.80;;;;;;;;;;5024932;28;20045;-56
2021/04/10 05:26:27;;;;;;;22.02;21.42;;;;;;;;;;5033956;28;20046;-54
2021/04/10 05:28:54;;;;;;;20.75;20.33;;;;;;;;;;5027524;28;20524;-55
2021/04/10 05:31:20;;;;;;;24.75;23.80;;;;;;;;;;5028744;28;20088;-55
2021/04/10 05:33:47;;;;;;;24.75;24.05;;;;;;;;;;5030564;28;20113;-56
2021/04/10 05:36:13;;;;;;;23.00;22.10;;;;;;;;;;5025889;28;20050;-56
2021/04/10 05:38:40;;;;;;;22.08;21.48;;;;;;;;;;5032580;28;20073;-56
2021/04/10 05:41:06;;;;;;;21.00;20.58;;;;;;;;;;5027506;28;20033;-55
2021/04/10 05:43:33;;;;;;;19.65;19.13;;;;;;;;;;5028566;28;20042;-56
2021/04/10 05:46:02;;;;;;;22.45;21.70;;;;;;;;;;5015519;28;20064;-56
2021/04/10 05:48:28;;;;;;;19.50;19.10;;;;;;;;;;5021601;28;20034;-55
2021/04/10 05:50:54;;;;;;;19.10;18.80;;;;;;;;;;5024633;28;20045;-56
2021/04/10 05:53:22;;;;;;;24.27;23.38;;;;;;;;;;5028356;28;20044;-56
2021/04/10 05:55:48;;;;;;;25.73;24.67;;;;;;;;;;5025799;28;20037;-54
2021/04/10 05:58:15;;;;;;;20.58;19.77;;;;;;;;;;5016281;28;20045;-57
2021/04/10 06:00:41;;;;;;;20.58;19.95;;;;;;;;;;5023233;28;20034;-56
2021/04/10 06:03:07;;;;;;;19.42;19.13;;;;;;;;;;5029818;28;20130;-57
2021/04/10 06:05:34;;;;;;;19.38;19.02;;;;;;;;;;5028413;28;20049;-56
2021/04/10 06:08:00;;;;;;;19.70;19.30;;;;;;;;;;5027116;28;20034;-57
2021/04/10 06:10:27;;;;;;;16.63;16.42;;;;;;;;;;5031238;28;20172;-55
2021/04/10 06:12:53;;;;;;;19.52;19.05;;;;;;;;;;5025514;28;20026;-56
2021/04/10 06:15:20;;;;;;;3.53;3.33;;;;;;;;;;5029937;28;20049;-57
2021/04/10 06:17:46;;;;;;;3.28;3.17;;;;;;;;;;5017895;28;20529;-42
2021/04/10 06:20:15;;;;;;;2.78;2.67;;;;;;;;;;5024659;28;20076;-41
2021/04/10 06:22:41;;;;;;;3.13;3.03;;;;;;;;;;5031571;28;20072;-42
2021/04/10 06:25:08;;;;;;;9.43;9.23;;;;;;;;;;5019661;28;20528;-42
2021/04/10 06:27:35;;;;;;;16.05;15.68;;;;;;;;;;5018574;28;20060;-41
2021/04/10 06:30:02;;;;;;;12.82;12.52;;;;;;;;;;5028496;28;20037;-43
2021/04/10 06:32:28;;;;;;;7.40;7.28;;;;;;;;;;5025044;28;20752;-43
2021/04/10 06:34:55;;;;;;;3.50;3.38;;;;;;;;;;5032751;28;20437;-42
2021/04/10 06:37:21;;;;;;;10.52;10.30;;;;;;;;;;5025517;28;20406;-42
2021/04/10 06:39:47;;;;;;;17.20;16.67;;;;;;;;;;5025816;28;20088;-42
2021/04/10 06:42:14;;;;;;;11.43;11.13;;;;;;;;;;5030515;28;20045;-41
2021/04/10 06:44:40;;;;;;;14.15;13.90;;;;;;;;;;5025323;28;20099;-42
2021/04/10 06:47:07;;;;;;;6.38;6.03;;;;;;;;;;5031225;28;20445;-41
2021/04/10 06:49:33;;;;;;;4.88;4.47;;;;;;;;;;5026096;28;20131;-41
2021/04/10 06:52:00;;;;;;;3.78;3.75;;;;;;;;;;5028220;28;20126;-42
2021/04/10 06:54:30;;;;;;;4.80;3.88;;;;;;;;;;5029746;28;20046;-41
2021/04/10 06:57:28;;;;;;;3.95;3.78;;;;;;;;;;5023856;28;20026;-41
2021/04/10 06:59:58;;;;;;;4.40;4.20;;;;;;;;;;5026852;28;20049;-41
2021/04/10 07:02:24;;;;;;;4.88;4.50;;;;;;;;;;5029970;28;20445;-44
2021/04/10 07:04:50;;;;;;;4.05;3.95;;;;;;;;;;5026637;28;20084;-43
2021/04/10 07:07:16;;;;;;;3.67;3.58;;;;;;;;;;5027340;28;20549;-43
2021/04/10 07:09:43;;;;;;;2.35;2.28;;;;;;;;;;5027623;28;20128;-42
2021/04/10 07:12:10;;;;;;;4.20;3.53;;;;;;;;;;5028640;28;20053;-45
2021/04/10 07:14:36;;;;;;;4.88;4.45;;;;;;;;;;5027021;28;20064;-42
2021/04/10 07:17:03;;;;;;;8.00;5.85;;;;;;;;;;5025267;28;20119;-42
2021/04/10 07:19:30;;;;;;;9.15;8.68;;;;;;;;;;5011053;28;20081;-45
2021/04/10 07:22:06;;;;;;;11.45;10.88;;;;;;;;;;5027700;28;20050;-42
2021/04/10 07:24:45;;;;;;;6.28;6.15;;;;;;;;;;5025944;28;20046;-43
2021/04/10 07:27:22;;;;;;;4.57;4.18;;;;;;;;;;5013021;28;20102;-42
2021/04/10 07:29:50;;;;;;;4.18;3.95;;;;;;;;;;5029276;28;20188;-41
2021/04/10 07:32:25;;;;;;;9.20;9.00;;;;;;;;;;5027879;28;20053;-42
2021/04/10 07:34:52;;;;;;;13.45;13.13;;;;;;;;;;5027758;28;20046;-42
2021/04/10 07:37:34;;;;;;;10.63;10.35;;;;;;;;;;5024061;28;20034;-42
2021/04/10 07:40:02;;;;;;;6.55;6.35;;;;;;;;;;5029517;28;20033;-41
2021/04/10 07:42:29;;;;;;;18.17;17.17;;;;;;;;;;5027994;28;20049;-44
2021/04/10 07:44:56;;;;;;;13.02;12.13;;;;;;;;;;5027128;28;20030;-43
2021/04/10 07:47:35;;;;;;;12.90;12.07;;;;;;;;;;5030587;28;20033;-43
2021/04/10 07:50:17;;;;;;;8.75;8.20;;;;;;;;;;5025406;28;20172;-41
2021/04/10 07:52:43;;;;;;;10.57;9.57;;;;;;;;;;5027417;28;20551;-42
2021/04/10 07:55:29;;;;;;;6.60;6.30;;;;;;;;;;5029610;28;20034;-41
2021/04/10 07:58:15;;;;;;;5.85;5.35;;;;;;;;;;5023790;28;20037;-44
2021/04/10 08:00:42;;;;;;;7.68;7.13;;;;;;;;;;5027045;28;20042;-42
2021/04/10 08:03:29;;;;;;;14.55;13.85;;;;;;;;;;5029762;28;20531;-42
2021/04/10 08:06:16;;;;;;;14.50;14.13;;;;;;;;;;5025243;28;20041;-42
2021/04/10 08:08:42;;;;;;;14.20;13.88;;;;;;;;;;5027130;28;20431;-42
2021/04/10 08:11:08;;;;;;;12.57;12.07;;;;;;;;;;5031744;28;20041;-42
2021/04/10 08:13:35;;;;;;;14.70;14.18;;;;;;;;;;5028365;28;20041;-42
2021/04/10 08:16:14;;;;;;;11.07;10.27;;;;;;;;;;5033862;28;20112;-41
2021/04/10 08:18:44;;;;;;;9.30;8.77;;;;;;;;;;5029373;28;20037;-44
2021/04/10 08:21:12;;;;;;;8.98;8.38;;;;;;;;;;5026909;28;20042;-41
2021/04/10 08:23:38;;;;;;;5.53;5.10;;;;;;;;;;5025760;28;20441;-42
2021/04/10 08:26:04;;;;;;;8.73;5.32;;;;;;;;;;5026818;28;20045;-41
2021/04/10 08:28:31;;;;;;;5.60;5.18;;;;;;;;;;5030026;28;20554;-43
2021/04/10 08:30:59;;;;;;;6.05;5.75;;;;;;;;;;5030334;28;20037;-41
2021/04/10 08:33:26;;;;;;;5.55;5.18;;;;;;;;;;5025891;28;20046;-41
2021/04/10 08:35:54;;;;;;;5.57;4.93;;;;;;;;;;5029170;28;20044;-42
2021/04/10 08:38:21;;;;;;;4.80;4.45;;;;;;;;;;5022758;28;20556;-41
2021/04/10 08:40:50;;;;;;;4.25;4.10;;;;;;;;;;5030636;28;20033;-42
2021/04/10 08:43:18;;;;;;;3.47;3.38;;;;;;;;;;5022414;28;20052;-41
2021/04/10 08:45:49;;;;;;;4.43;3.30;;;;;;;;;;5024723;28;20045;-42
2021/04/10 08:48:18;;;;;;;2.38;2.33;;;;;;;;;;5018813;28;20049;-43
2021/04/10 08:50:45;;;;;;;2.45;2.25;;;;;;;;;;5027899;28;20115;-43
2021/04/10 08:53:16;;;;;;;4.00;2.42;;;;;;;;;;5028280;28;20111;-42
2021/04/10 08:55:43;;;;;;;3.75;3.40;;;;;;;;;;5032301;28;20037;-43
2021/04/10 08:58:19;;;;;;;3.13;2.92;;;;;;;;;;5022147;28;20461;-42
2021/04/10 09:00:45;;;;;;;2.15;2.05;;;;;;;;;;5019796;28;20046;-42
2021/04/10 09:03:12;;;;;;;2.53;2.40;;;;;;;;;;5030143;28;20104;-42
2021/04/10 09:05:44;;;;;;;4.20;3.72;;;;;;;;;;5025706;28;20401;-42
2021/04/10 09:08:22;;;;;;;4.28;3.28;;;;;;;;;;5034378;28;20072;-42
2021/04/10 09:10:48;;;;;;;2.70;2.60;;;;;;;;;;5027476;28;20048;-45
2021/04/10 09:13:19;;;;;;;2.78;2.58;;;;;;;;;;5026815;28;20064;-42
2021/04/10 09:15:45;;;;;;;3.45;2.58;;;;;;;;;;5032868;28;20498;-42
2021/04/10 09:18:15;;;;;;;2.20;2.05;;;;;;;;;;5026758;28;20034;-43
2021/04/10 09:20:50;;;;;;;2.85;2.30;;;;;;;;;;5031194;28;20076;-43
2021/04/10 09:23:34;;;;;;;3.67;1.63;;;;;;;;;;5028675;28;20496;-43
2021/04/10 09:26:07;;;;;;;2.03;1.92;;;;;;;;;;5024955;28;20057;-43
2021/04/10 09:28:33;;;;;;;;;;;;;;;;;;5033100;28;20505;-43
2021/04/10 09:31:00;;;;;;;5.13;1.80;;;;;;;;;;5027521;28;19920;-42
2021/04/10 09:33:29;;;;;;;4.53;2.20;;;;;;;;;;5029056;28;20389;-45
2021/04/10 09:35:56;;;;;;;1.63;1.52;;;;;;;;;;5032032;28;20056;-43
2021/04/10 09:38:41;;;;;;;3.10;2.83;;;;;;;;;;5038714;28;20034;-43
2021/04/10 09:41:08;;;;;;;4.05;3.95;;;;;;;;;;5025776;28;20030;-42
2021/04/10 09:43:34;;;;;;;4.45;3.60;;;;;;;;;;5020866;28;20124;-41
2021/04/10 09:46:00;;;;;;;3.20;2.40;;;;;;;;;;5021058;28;20044;-42
2021/04/10 09:48:28;;;;;;;2.72;2.53;;;;;;;;;;5032100;28;20069;-42
2021/04/10 09:50:54;;;;;;;4.55;3.85;;;;;;;;;;5025367;28;20513;-42
2021/04/10 09:53:24;;;;;;;2.88;2.78;;;;;;;;;;5030255;28;20037;-43
2021/04/10 09:56:05;;;;;;;6.22;5.85;;;;;;;;;;5030389;28;20038;-42
2021/04/10 09:58:36;;;;;;;4.55;4.25;;;;;;;;;;5026711;28;20064;-42
2021/04/10 10:01:06;;;;;;;3.97;3.78;;;;;;;;;;5026645;28;20140;-43
2021/04/10 10:03:33;;;;;;;3.33;2.75;;;;;;;;;;5025424;28;20045;-47
2021/04/10 10:06:24;;;;;;;6.40;4.85;;;;;;;;;;5020938;28;20041;-45
2021/04/10 10:08:50;;;;;;;3.53;3.38;;;;;;;;;;5023219;28;20041;-44
2021/04/10 10:11:17;;;;;;;5.70;5.50;;;;;;;;;;5026662;28;20057;-42
2021/04/10 10:13:44;;;;;;;5.43;5.13;;;;;;;;;;5027962;28;20053;-45
2021/04/10 10:16:10;;;;;;;3.65;3.45;;;;;;;;;;5028665;28;20456;-42
2021/04/10 10:18:38;;;;;;;3.00;2.80;;;;;;;;;;5024827;28;20045;-42
2021/04/10 10:21:04;;;;;;;3.22;3.03;;;;;;;;;;5027721;28;20033;-42
2021/04/10 10:23:34;;;;;;;4.60;4.30;;;;;;;;;;5023129;28;20038;-42
2021/04/10 10:26:08;;;;;;;6.10;4.13;;;;;;;;;;5029894;28;20046;-45
2021/04/10 10:28:36;;;;;;;4.75;4.47;;;;;;;;;;5025578;28;20041;-43
2021/04/10 10:31:06;;;;;;;5.32;4.10;;;;;;;;;;5022605;28;20049;-43
2021/04/10 10:33:32;;;;;;;5.63;5.22;;;;;;;;;;5028974;28;20121;-43
2021/04/10 10:36:00;;;;;;;8.88;8.50;;;;;;;;;;5019992;28;20038;-57
2021/04/10 10:38:34;;;;;;;9.75;9.35;;;;;;;;;;5027544;28;20272;-60
2021/04/10 10:41:01;;;;;;;9.90;9.25;;;;;;;;;;5020570;28;20096;-60
2021/04/10 10:43:27;;;;;;;8.55;8.32;;;;;;;;;;5022141;28;20405;-56
2021/04/10 10:45:55;;;;;;;7.40;6.93;;;;;;;;;;5027346;28;20064;-60
2021/04/10 10:48:34;;;;;;;4.43;4.13;;;;;;;;;;5019393;28;20042;-58
2021/04/10 10:51:00;;;;;;;4.85;3.53;;;;;;;;;;5024781;28;20062;-60
2021/04/10 10:53:43;;;;;;;4.63;4.28;;;;;;;;;;5027632;28;20087;-59
2021/04/10 10:56:24;;;;;;;5.97;5.68;;;;;;;;;;5022228;28;20429;-60
2021/04/10 10:58:51;;;;;;;7.32;6.93;;;;;;;;;;5025115;28;20057;-58
2021/04/10 11:01:19;;;;;;;9.70;9.27;;;;;;;;;;5027438;28;20124;-59
2021/04/10 11:04:05;;;;;;;7.88;7.28;;;;;;;;;;5024799;28;20050;-60
2021/04/10 11:06:33;;;;;;;8.98;8.30;;;;;;;;;;5027388;28;20405;-59
2021/04/10 11:09:01;;;;;;;9.15;6.90;;;;;;;;;;5026015;28;20037;-59
2021/04/10 11:11:32;;;;;;;3.80;3.47;;;;;;;;;;5026365;28;20060;-58
2021/04/10 11:13:59;;;;;;;4.80;4.47;;;;;;;;;;5020133;28;20494;-60
2021/04/10 11:16:25;;;;;;;4.43;4.10;;;;;;;;;;5024756;28;20466;-58
2021/04/10 11:18:55;;;;;;;5.07;4.57;;;;;;;;;;5029066;28;20049;-60
2021/04/10 11:21:31;;;;;;;3.90;3.38;;;;;;;;;;5025952;28;20030;-59
2021/04/10 11:24:09;;;;;;;3.95;3.60;;;;;;;;;;5026043;28;20048;-60
2021/04/10 11:26:36;;;;;;;3.35;3.25;;;;;;;;;;5028810;28;20099;-60
2021/04/10 11:29:12;;;;;;;5.55;5.03;;;;;;;;;;5025428;28;20049;-60
2021/04/10 11:31:38;;;;;;;5.10;4.90;;;;;;;;;;5020285;28;20049;-56
2021/04/10 11:34:25;;;;;;;5.28;4.97;;;;;;;;;;5024963;28;20498;-59
2021/04/10 11:36:52;;;;;;;4.78;4.38;;;;;;;;;;5024857;28;20046;-59
2021/04/10 11:39:18;;;;;;;6.03;4.80;;;;;;;;;;5028117;28;20053;-55
2021/04/10 11:41:45;;;;;;;6.93;6.32;;;;;;;;;;5027122;28;20505;-59
2021/04/10 11:44:12;;;;;;;5.80;5.30;;;;;;;;;;5023949;28;20038;-59
2021/04/10 11:46:38;;;;;;;4.00;3.90;;;;;;;;;;5034141;28;20466;-59
2021/04/10 11:49:05;;;;;;;5.40;3.75;;;;;;;;;;5028531;28;20128;-59
2021/04/10 11:51:31;;;;;;;5.70;4.00;;;;;;;;;;5029635;28;20037;-57
2021/04/10 11:53:57;;;;;;;3.70;3.17;;;;;;;;;;5033641;28;20037;-59
2021/04/10 11:56:23;;;;;;;4.30;3.60;;;;;;;;;;5026802;28;20029;-59
2021/04/10 11:58:59;;;;;;;3.72;3.00;;;;;;;;;;5035672;28;20109;-59
2021/04/10 12:01:26;;;;;;;5.57;5.03;;;;;;;;;;5019556;28;20107;-59
2021/04/10 12:03:54;;;;;;;3.92;3.42;;;;;;;;;;5022281;28;20038;-59
2021/04/10 12:06:26;;;;;;;3.17;3.08;;;;;;;;;;5033229;28;20128;-59
2021/04/10 12:08:53;;;;;;;4.43;3.37;;;;;;;;;;5025426;28;20081;-59
2021/04/10 12:11:22;;;;;;;4.07;3.78;;;;;;;;;;5031246;28;20042;-59
2021/04/10 12:13:48;;;;;;;5.20;4.88;;;;;;;;;;5019815;28;20030;-58
2021/04/10 12:16:15;;;;;;;10.80;4.55;;;;;;;;;;5023479;28;20042;-59
2021/04/10 12:18:41;;;;;;;2.70;2.60;;;;;;;;;;5034924;28;20037;-59
2021/04/10 12:21:07;;;;;;;4.22;3.75;;;;;;;;;;5027230;28;20065;-57
2021/04/10 12:23:34;;;;;;;4.97;4.57;;;;;;;;;;5032271;28;20041;-59
2021/04/10 12:26:02;;;;;;;8.75;4.60;;;;;;;;;;5031473;28;20041;-57
2021/04/10 12:28:29;;;;;;;4.65;4.35;;;;;;;;;;5028250;28;20461;-57
2021/04/10 12:30:55;;;;;;;6.95;6.55;;;;;;;;;;5034883;28;20076;-60
2021/04/10 12:33:22;;;;;;;10.35;8.65;;;;;;;;;;5026244;28;20041;-59
2021/04/10 12:35:48;;;;;;;12.25;11.27;;;;;;;;;;5029585;28;20037;-59
2021/04/10 12:38:15;;;;;;;7.70;6.88;;;;;;;;;;5030559;28;20128;-59
2021/04/10 12:40:42;;;;;;;5.05;4.60;;;;;;;;;;5026602;28;20125;-59
2021/04/10 12:43:09;;;;;;;6.38;5.85;;;;;;;;;;5028243;28;20033;-59
2021/04/10 12:45:35;;;;;;;5.70;5.18;;;;;;;;;;5027946;28;20042;-56
2021/04/10 12:48:03;;;;;;;6.07;5.40;;;;;;;;;;5030515;28;20425;-59
2021/04/10 12:50:29;;;;;;;5.95;5.40;;;;;;;;;;5031912;28;20430;-58
2021/04/10 12:52:56;;;;;;;8.52;5.53;;;;;;;;;;5027358;28;20583;-59
2021/04/10 12:55:25;;;;;;;5.00;4.70;;;;;;;;;;5031952;28;20042;-59
2021/04/10 12:57:53;;;;;;;4.68;4.35;;;;;;;;;;5027537;28;20038;-58
2021/04/10 13:00:19;;;;;;;3.75;3.55;;;;;;;;;;5026776;28;20077;-59
2021/04/10 13:02:46;;;;;;;5.50;5.15;;;;;;;;;;5032611;28;20136;-60
2021/04/10 13:05:12;;;;;;;6.65;6.40;;;;;;;;;;5026096;28;20371;-59
2021/04/10 13:07:44;;;;;;;9.18;8.38;;;;;;;;;;5031554;28;20041;-59
2021/04/10 13:10:11;;;;;;;12.88;10.88;;;;;;;;;;5028564;28;20060;-59
2021/04/10 13:12:38;;;;;;;8.20;7.38;;;;;;;;;;5027924;28;20508;-59
2021/04/10 13:15:05;;;;;;;15.73;4.32;;;;;;;;;;5032618;28;20433;-59
2021/04/10 13:17:32;;;;;;;3.30;3.05;;;;;;;;;;5025910;28;20462;-59
2021/04/10 13:19:59;;;;;;;3.88;3.65;;;;;;;;;;5029822;28;20048;-59
2021/04/10 13:22:25;;;;;;;3.58;3.38;;;;;;;;;;5030325;28;20132;-60
2021/04/10 13:24:51;;;;;;;4.95;3.20;;;;;;;;;;5028381;28;20438;-58
2021/04/10 13:27:18;;;;;;;7.53;3.83;;;;;;;;;;5033720;28;20060;-59
2021/04/10 13:29:44;;;;;;;3.95;3.58;;;;;;;;;;5025281;28;20041;-60
2021/04/10 13:32:10;;;;;;;3.13;2.85;;;;;;;;;;5030453;28;20051;-59
2021/04/10 13:34:37;;;;;;;3.72;3.42;;;;;;;;;;5030008;28;20046;-60
2021/04/10 13:37:04;;;;;;;3.20;3.00;;;;;;;;;;5025038;28;20042;-59
2021/04/10 13:39:30;;;;;;;2.95;2.72;;;;;;;;;;5022548;28;20034;-54
2021/04/10 13:41:57;;;;;;;5.53;3.40;;;;;;;;;;5026558;28;20501;-60
2021/04/10 13:44:23;;;;;;;3.92;3.67;;;;;;;;;;5029973;28;20030;-59
2021/04/10 13:46:50;;;;;;;3.88;3.58;;;;;;;;;;5016498;28;20042;-60
2021/04/10 13:49:16;;;;;;;8.57;3.72;;;;;;;;;;5022366;28;20057;-60
2021/04/10 13:51:44;;;;;;;3.83;3.40;;;;;;;;;;5033411;28;20482;-60
2021/04/10 13:54:10;;;;;;;5.13;3.25;;;;;;;;;;5027655;28;20095;-59
2021/04/10 13:56:36;;;;;;;5.10;3.10;;;;;;;;;;5028759;28;20091;-59
2021/04/10 13:59:03;;;;;;;8.02;7.35;;;;;;;;;;5030449;28;20132;-59
2021/04/10 14:01:30;;;;;;;5.55;4.05;;;;;;;;;;5025252;28;20049;-59
2021/04/10 14:03:57;;;;;;;3.67;2.95;;;;;;;;;;5031385;28;20046;-59
2021/04/10 14:06:25;;;;;;;7.53;5.22;;;;;;;;;;5026682;28;20057;-59
2021/04/10 14:08:52;;;;;;;4.40;4.07;;;;;;;;;;5029714;28;20078;-59
2021/04/10 14:11:18;;;;;;;4.50;4.00;;;;;;;;;;5030131;28;20474;-60
2021/04/10 14:13:45;;;;;;;4.25;3.95;;;;;;;;;;5026936;28;20482;-59
2021/04/10 14:16:12;;;;;;;4.55;4.32;;;;;;;;;;5029443;28;20092;-60
2021/04/10 14:18:39;;;;;;;3.22;3.13;;;;;;;;;;5026382;28;20038;-60
2021/04/10 14:21:06;;;;;;;6.05;3.50;;;;;;;;;;5027036;28;20040;-60
2021/04/10 14:23:35;;;;;;;5.45;3.95;;;;;;;;;;5031287;28;20038;-60
2021/04/10 14:26:06;;;;;;;9.10;5.75;;;;;;;;;;5025347;28;20132;-59
2021/04/10 14:28:33;;;;;;;5.82;5.43;;;;;;;;;;5029402;28;20045;-59
2021/04/10 14:31:00;;;;;;;3.80;3.60;;;;;;;;;;5014685;28;20104;-60
2021/04/10 14:33:32;;;;;;;5.78;3.45;;;;;;;;;;5021030;28;20443;-59
2021/04/10 14:35:59;;;;;;;3.90;3.70;;;;;;;;;;5028433;28;20042;-54
2021/04/10 14:38:25;;;;;;;4.22;3.92;;;;;;;;;;5026227;28;20092;-60
2021/04/10 14:40:52;;;;;;;7.97;4.72;;;;;;;;;;5025675;28;20401;-59